createdAt,value
2018-08-06T00:00:11.698Z,99.90
2018-08-06T00:02:41.509Z,99.90
2018-08-06T00:05:10.122Z,99.90
2018-08-06T00:07:38.724Z,99.90
2018-08-06T00:10:11.629Z,99.90
2018-08-06T00:15:10.177Z,99.90
2018-08-06T00:17:39.304Z,99.90
2018-08-06T00:20:09.205Z,99.90
2018-08-06T00:22:38.216Z,99.90
2018-08-06T00:25:07.679Z,99.90
2018-08-06T00:27:36.224Z,99.90
2018-08-06T00:30:06.991Z,99.90
2018-08-06T00:32:35.537Z,99.90
2018-08-06T00:35:04.262Z,99.90
2018-08-06T00:37:32.832Z,99.90
2018-08-06T00:40:01.362Z,99.90
2018-08-06T00:42:30.044Z,99.90
2018-08-06T00:44:58.643Z,99.90
2018-08-06T00:47:27.226Z,99.90
2018-08-06T00:49:55.780Z,99.90
2018-08-06T00:52:24.449Z,99.90
2018-08-06T00:54:53.784Z,99.90
2018-08-06T00:57:23.065Z,99.90
2018-08-06T00:59:52.265Z,99.90
2018-08-06T01:02:20.901Z,99.90
2018-08-06T01:04:50.063Z,99.90
2018-08-06T01:07:18.669Z,99.90
2018-08-06T01:09:48.193Z,99.90
2018-08-06T01:14:45.606Z,99.90
2018-08-06T01:17:14.599Z,99.90
2018-08-06T01:19:43.136Z,99.90
2018-08-06T01:22:11.695Z,99.90
2018-08-06T01:24:40.853Z,99.90
2018-08-06T01:27:09.433Z,99.90
2018-08-06T01:29:37.952Z,99.90
2018-08-06T01:32:06.617Z,99.90
2018-08-06T01:34:35.172Z,99.90
2018-08-06T01:37:03.740Z,99.90
2018-08-06T01:39:32.253Z,99.90
2018-08-06T01:42:00.862Z,99.90
2018-08-06T01:44:29.393Z,99.90
2018-08-06T01:46:58.858Z,99.90
2018-08-06T01:49:27.476Z,99.90
2018-08-06T01:51:56.082Z,99.90
2018-08-06T01:54:24.693Z,99.90
2018-08-06T01:56:53.257Z,99.90
2018-08-06T01:59:21.865Z,99.90
2018-08-06T02:01:50.449Z,99.90
2018-08-06T02:04:19.733Z,99.90
2018-08-06T02:06:48.313Z,99.90
2018-08-06T02:09:16.915Z,99.90
2018-08-06T02:11:45.500Z,99.90
2018-08-06T02:14:14.141Z,99.90
2018-08-06T02:16:43.297Z,99.90
2018-08-06T02:19:11.917Z,99.90
2018-08-06T02:21:41.586Z,99.90
2018-08-06T02:24:10.241Z,99.90
2018-08-06T02:26:38.895Z,99.90
2018-08-06T02:29:08.278Z,99.90
2018-08-06T02:31:37.262Z,99.90
2018-08-06T02:34:06.704Z,99.90
2018-08-06T02:36:35.280Z,99.90
2018-08-06T02:39:06.586Z,99.90
2018-08-06T02:41:35.836Z,99.90
2018-08-06T02:44:04.654Z,99.90
2018-08-06T02:46:33.862Z,99.90
2018-08-06T02:49:02.597Z,99.90
2018-08-06T02:51:31.217Z,99.90
2018-08-06T02:53:59.910Z,99.90
2018-08-06T02:56:28.493Z,99.90
2018-08-06T02:58:57.430Z,99.90
2018-08-06T03:01:26.632Z,99.90
2018-08-06T03:03:55.229Z,99.90
2018-08-06T03:06:24.599Z,99.90
2018-08-06T03:08:53.265Z,99.90
2018-08-06T03:11:21.881Z,99.90
2018-08-06T03:13:50.753Z,99.90
2018-08-06T03:16:19.359Z,99.90
2018-08-06T03:18:47.957Z,99.90
2018-08-06T03:21:16.524Z,99.90
2018-08-06T03:23:45.126Z,99.90
2018-08-06T03:26:13.709Z,99.90
2018-08-06T03:28:42.859Z,99.90
2018-08-06T03:31:11.425Z,99.90
2018-08-06T03:33:40.677Z,99.90
2018-08-06T03:36:09.324Z,99.90
2018-08-06T03:43:34.757Z,99.90
2018-08-06T03:48:31.745Z,99.90
2018-08-06T03:51:02.264Z,99.90
2018-08-06T03:53:30.904Z,99.90
2018-08-06T03:55:59.535Z,99.90
2018-08-06T03:58:28.217Z,99.90
2018-08-06T04:03:25.081Z,99.90
2018-08-06T04:05:53.695Z,99.90
2018-08-06T04:08:22.860Z,99.90
2018-08-06T04:10:51.462Z,99.90
2018-08-06T04:13:20.200Z,99.90
2018-08-06T04:15:49.741Z,99.90
2018-08-06T04:18:18.610Z,99.90
2018-08-06T04:20:47.201Z,99.90
2018-08-06T04:23:15.780Z,99.90
2018-08-06T04:25:44.397Z,99.90
2018-08-06T04:28:12.977Z,99.90
2018-08-06T04:30:42.197Z,99.90
2018-08-06T04:33:10.828Z,99.90
2018-08-06T04:35:39.385Z,99.90
2018-08-06T04:38:08.004Z,99.90
2018-08-06T04:40:36.639Z,99.90
2018-08-06T04:43:05.830Z,99.90
2018-08-06T04:45:34.933Z,99.90
2018-08-06T04:48:04.616Z,99.90
2018-08-06T04:50:33.789Z,99.90
2018-08-06T04:53:11.624Z,99.90
2018-08-06T04:55:47.673Z,99.90
2018-08-06T04:58:16.201Z,99.90
2018-08-06T05:00:45.091Z,99.90
2018-08-06T05:03:13.704Z,99.90
2018-08-06T05:05:42.325Z,99.90
2018-08-06T05:08:10.890Z,99.90
2018-08-06T05:13:07.679Z,99.90
2018-08-06T05:15:36.249Z,99.90
2018-08-06T05:18:04.852Z,99.90
2018-08-06T05:20:37.224Z,99.90
2018-08-06T05:23:06.142Z,99.90
2018-08-06T05:25:34.854Z,99.90
2018-08-06T05:28:05.854Z,99.90
2018-08-06T05:30:34.711Z,99.90
2018-08-06T05:33:03.420Z,99.90
2018-08-06T05:35:37.201Z,99.90
2018-08-06T05:38:06.910Z,99.90
2018-08-06T05:40:35.589Z,99.90
2018-08-06T05:45:32.723Z,99.90
2018-08-06T05:48:01.302Z,99.90
2018-08-06T05:50:30.678Z,99.90
2018-08-06T05:52:59.372Z,99.90
2018-08-06T05:55:28.031Z,99.90
2018-08-06T05:57:59.365Z,99.90
2018-08-06T06:00:28.101Z,99.90
2018-08-06T06:02:56.849Z,99.80
2018-08-06T06:05:25.454Z,99.00
2018-08-06T06:07:54.061Z,98.80
2018-08-06T06:10:22.752Z,98.50
2018-08-06T06:12:51.462Z,98.30
2018-08-06T06:15:20.219Z,98.90
2018-08-06T06:17:48.861Z,99.40
2018-08-06T06:20:18.100Z,99.90
2018-08-06T06:22:46.789Z,99.50
2018-08-06T06:25:15.456Z,99.60
2018-08-06T06:27:45.113Z,99.80
2018-08-06T06:30:16.509Z,99.40
2018-08-06T06:32:45.229Z,99.40
2018-08-06T06:35:14.935Z,99.60
2018-08-06T06:37:43.731Z,98.10
2018-08-06T06:40:12.400Z,98.70
2018-08-06T06:42:41.676Z,97.90
2018-08-06T06:47:39.075Z,98.10
2018-08-06T06:50:08.924Z,97.20
2018-08-06T06:52:38.169Z,96.90
2018-08-06T06:55:09.072Z,96.70
2018-08-06T06:57:37.689Z,96.30
2018-08-06T07:00:07.593Z,96.40
2018-08-06T07:02:36.177Z,96.60
2018-08-06T07:05:05.086Z,96.50
2018-08-06T07:07:34.345Z,96.50
2018-08-06T07:10:03.053Z,96.00
2018-08-06T07:12:31.718Z,95.90
2018-08-06T07:15:00.372Z,96.00
2018-08-06T07:17:29.106Z,96.00
2018-08-06T07:19:57.737Z,96.10
2018-08-06T07:22:26.382Z,95.60
2018-08-06T07:24:55.052Z,95.50
2018-08-06T07:27:23.706Z,96.10
2018-08-06T07:29:52.972Z,95.60
2018-08-06T07:34:49.885Z,95.00
2018-08-06T07:37:18.985Z,95.00
2018-08-06T07:39:47.564Z,95.00
2018-08-06T07:42:18.045Z,95.00
2018-08-06T07:44:46.820Z,95.00
2018-08-06T07:49:43.813Z,95.10
2018-08-06T07:52:13.750Z,94.80
2018-08-06T07:54:42.353Z,95.00
2018-08-06T07:57:11.401Z,94.70
2018-08-06T07:59:40.645Z,94.40
2018-08-06T08:02:09.329Z,94.50
2018-08-06T08:04:38.714Z,94.40
2018-08-06T08:07:07.869Z,94.30
2018-08-06T08:09:36.496Z,94.60
2018-08-06T08:12:05.191Z,94.50
2018-08-06T08:14:34.760Z,94.00
2018-08-06T08:17:03.483Z,94.70
2018-08-06T08:19:32.246Z,94.20
2018-08-06T08:22:01.673Z,93.80
2018-08-06T08:24:30.620Z,93.70
2018-08-06T08:26:59.311Z,93.30
2018-08-06T08:29:27.961Z,93.70
2018-08-06T08:31:57.202Z,93.90
2018-08-06T08:36:54.316Z,93.60
2018-08-06T08:39:22.885Z,93.60
2018-08-06T08:41:51.791Z,93.80
2018-08-06T08:44:20.365Z,94.00
2018-08-06T08:46:48.964Z,93.80
2018-08-06T08:49:18.250Z,93.40
2018-08-06T08:51:46.921Z,93.70
2018-08-06T08:54:15.457Z,93.90
2018-08-06T08:56:44.314Z,93.50
2018-08-06T08:59:12.895Z,93.40
2018-08-06T09:01:41.583Z,93.40
2018-08-06T09:04:10.129Z,93.30
2018-08-06T09:09:09.673Z,92.80
2018-08-06T09:11:38.276Z,92.50
2018-08-06T09:14:06.826Z,93.00
2018-08-06T09:16:35.793Z,92.60
2018-08-06T09:19:04.388Z,92.70
2018-08-06T09:21:33.037Z,92.20
2018-08-06T09:24:02.533Z,92.30
2018-08-06T09:26:32.038Z,92.30
2018-08-06T09:29:02.200Z,92.10
2018-08-06T09:31:32.451Z,92.00
2018-08-06T09:36:32.369Z,92.00
2018-08-06T09:43:58.517Z,91.90
2018-08-06T09:46:27.088Z,92.00
2018-08-06T09:48:55.618Z,92.10
2018-08-06T09:51:24.228Z,91.70
2018-08-06T09:53:52.949Z,91.80
2018-08-06T09:56:25.440Z,91.70
2018-08-06T09:58:54.297Z,92.00
2018-08-06T10:01:28.161Z,91.40
2018-08-06T10:03:56.890Z,91.70
2018-08-06T10:06:25.708Z,91.40
2018-08-06T10:08:54.248Z,91.40
2018-08-06T10:11:22.896Z,90.90
2018-08-06T10:16:19.824Z,91.10
2018-08-06T10:18:48.501Z,91.20
2018-08-06T10:21:17.070Z,91.00
2018-08-06T10:23:45.841Z,91.10
2018-08-06T10:26:14.644Z,90.90
2018-08-06T10:28:44.365Z,90.70
2018-08-06T10:31:12.937Z,90.50
2018-08-06T10:33:41.533Z,90.50
2018-08-06T10:36:10.146Z,90.40
2018-08-06T10:38:38.973Z,90.40
2018-08-06T10:41:07.631Z,90.30
2018-08-06T10:43:36.432Z,90.20
2018-08-06T10:48:33.477Z,89.90
2018-08-06T10:51:02.061Z,89.10
2018-08-06T10:53:30.712Z,89.10
2018-08-06T10:55:59.349Z,88.50
2018-08-06T10:58:27.972Z,88.60
2018-08-06T11:00:56.562Z,88.80
2018-08-06T11:03:25.195Z,89.10
2018-08-06T11:05:53.844Z,88.10
2018-08-06T11:08:22.820Z,87.70
2018-08-06T11:10:51.370Z,86.90
2018-08-06T11:13:19.973Z,86.60
2018-08-06T11:15:48.587Z,86.30
2018-08-06T11:18:17.403Z,86.40
2018-08-06T11:20:54.509Z,85.60
2018-08-06T11:23:23.293Z,86.30
2018-08-06T11:25:51.857Z,85.70
2018-08-06T11:28:21.179Z,86.20
2018-08-06T11:30:49.729Z,87.00
2018-08-06T11:33:19.089Z,85.40
2018-08-06T11:35:47.720Z,86.10
2018-08-06T11:38:16.516Z,86.00
2018-08-06T11:40:45.065Z,84.50
2018-08-06T11:43:13.649Z,84.90
2018-08-06T11:45:42.200Z,85.50
2018-08-06T11:48:10.763Z,85.30
2018-08-06T11:50:39.325Z,84.60
2018-08-06T11:53:07.955Z,83.20
2018-08-06T11:58:04.770Z,83.40
2018-08-06T12:00:33.378Z,83.80
2018-08-06T12:03:01.977Z,83.60
2018-08-06T12:05:30.502Z,83.00
2018-08-06T12:07:59.104Z,83.50
2018-08-06T12:10:27.687Z,83.20
2018-08-06T12:12:56.265Z,83.30
2018-08-06T12:15:24.793Z,82.10
2018-08-06T12:17:53.353Z,81.30
2018-08-06T12:20:22.017Z,81.20
2018-08-06T12:22:51.436Z,81.50
2018-08-06T12:25:20.392Z,81.20
2018-08-06T12:27:49.734Z,80.90
2018-08-06T12:30:19.929Z,80.40
2018-08-06T12:32:49.554Z,80.30
2018-08-06T12:35:18.632Z,80.00
2018-08-06T12:37:48.016Z,79.50
2018-08-06T12:40:17.737Z,79.70
2018-08-06T12:42:46.341Z,79.30
2018-08-06T12:45:15.968Z,78.90
2018-08-06T12:47:45.029Z,79.00
2018-08-06T12:50:14.686Z,79.40
2018-08-06T12:52:43.773Z,79.60
2018-08-06T12:55:13.685Z,80.00
2018-08-06T12:57:42.855Z,79.80
2018-08-06T13:00:18.017Z,79.30
2018-08-06T13:02:47.292Z,79.00
2018-08-06T13:05:16.764Z,78.90
2018-08-06T13:15:11.899Z,78.70
2018-08-06T13:17:40.778Z,78.60
2018-08-06T13:20:09.649Z,78.80
2018-08-06T13:22:38.305Z,77.40
2018-08-06T13:25:08.851Z,76.00
2018-08-06T13:27:37.537Z,75.30
2018-08-06T13:30:08.815Z,74.10
2018-08-06T13:32:37.352Z,73.50
2018-08-06T13:37:34.239Z,72.80
2018-08-06T13:40:02.827Z,72.70
2018-08-06T13:42:31.397Z,71.90
2018-08-06T13:44:59.963Z,72.10
2018-08-06T13:47:28.535Z,71.30
2018-08-06T13:52:25.333Z,71.80
2018-08-06T13:54:54.141Z,69.80
2018-08-06T13:57:22.709Z,69.10
2018-08-06T13:59:51.315Z,70.50
2018-08-06T14:02:19.901Z,69.60
2018-08-06T14:04:48.509Z,70.00
2018-08-06T14:07:17.458Z,68.80
2018-08-06T14:09:46.044Z,71.20
2018-08-06T14:12:14.627Z,70.10
2018-08-06T14:14:43.198Z,70.50
2018-08-06T14:17:11.747Z,70.90
2018-08-06T14:19:40.316Z,70.30
2018-08-06T14:22:08.899Z,70.40
2018-08-06T14:24:37.462Z,70.00
2018-08-06T14:27:06.017Z,69.40
2018-08-06T14:29:34.576Z,69.70
2018-08-06T14:32:03.164Z,69.70
2018-08-06T14:34:31.750Z,70.50
2018-08-06T14:37:00.311Z,68.80
2018-08-06T14:39:28.921Z,69.40
2018-08-06T14:41:57.483Z,69.60
2018-08-06T14:44:26.085Z,69.70
2018-08-06T14:46:54.676Z,69.80
2018-08-06T14:49:23.854Z,70.80
2018-08-06T14:54:20.618Z,70.50
2018-08-06T15:01:46.377Z,69.60
2018-08-06T15:04:15.214Z,69.50
2018-08-06T15:06:43.748Z,70.10
2018-08-06T15:09:13.338Z,70.00
2018-08-06T15:11:42.409Z,69.90
2018-08-06T15:14:11.026Z,69.50
2018-08-06T15:19:08.374Z,68.70
2018-08-06T15:21:36.875Z,68.90
2018-08-06T15:24:05.492Z,69.30
2018-08-06T15:26:34.029Z,70.90
2018-08-06T15:29:03.141Z,70.20
2018-08-06T15:31:31.695Z,69.40
2018-08-06T15:34:00.198Z,69.70
2018-08-06T15:36:28.738Z,71.40
2018-08-06T15:38:57.326Z,70.00
2018-08-06T15:41:25.898Z,70.10
2018-08-06T15:43:54.425Z,70.30
2018-08-06T15:46:22.964Z,70.50
2018-08-06T15:48:51.903Z,70.40
2018-08-06T15:51:20.460Z,68.90
2018-08-06T15:53:48.978Z,66.20
2018-08-06T15:56:17.494Z,65.30
2018-08-06T15:58:46.029Z,66.00
2018-08-06T16:01:14.581Z,64.10
2018-08-06T16:03:43.184Z,63.00
2018-08-06T16:06:11.696Z,63.50
2018-08-06T16:08:40.230Z,62.10
2018-08-06T16:11:08.809Z,60.00
2018-08-06T16:13:37.309Z,58.80
2018-08-06T16:16:05.897Z,59.70
2018-08-06T16:18:34.394Z,59.40
2018-08-06T16:21:03.361Z,60.10
2018-08-06T16:23:31.902Z,60.10
2018-08-06T16:28:28.636Z,57.60
2018-08-06T16:30:57.183Z,56.80
2018-08-06T16:33:25.769Z,57.20
2018-08-06T16:35:54.406Z,57.30
2018-08-06T16:38:22.927Z,57.20
2018-08-06T16:40:51.531Z,56.60
2018-08-06T16:43:20.657Z,57.00
2018-08-06T16:45:49.258Z,57.90
2018-08-06T16:50:46.780Z,57.80
2018-08-06T16:53:15.433Z,56.50
2018-08-06T16:58:12.238Z,58.20
2018-08-06T17:00:40.881Z,59.40
2018-08-06T17:03:09.472Z,58.70
2018-08-06T17:05:38.138Z,58.90
2018-08-06T17:10:34.941Z,59.10
2018-08-06T17:13:03.589Z,58.80
2018-08-06T17:15:32.198Z,57.50
2018-08-06T17:18:00.777Z,58.30
2018-08-06T17:20:29.442Z,58.10
2018-08-06T17:22:58.066Z,58.80
2018-08-06T17:25:26.718Z,58.80
2018-08-06T17:30:23.567Z,59.20
2018-08-06T17:35:20.346Z,59.30
2018-08-06T17:37:48.903Z,61.40
2018-08-06T17:40:18.802Z,60.70
2018-08-06T17:42:47.767Z,60.40
2018-08-06T17:45:22.848Z,60.60
2018-08-06T17:47:51.465Z,61.20
2018-08-06T17:50:21.844Z,61.10
2018-08-06T17:52:51.624Z,60.90
2018-08-06T17:55:21.062Z,59.50
2018-08-06T17:57:49.687Z,60.70
2018-08-06T18:00:18.906Z,60.50
2018-08-06T18:02:47.755Z,61.30
2018-08-06T18:05:17.197Z,62.20
2018-08-06T18:07:45.828Z,62.10
2018-08-06T18:10:15.590Z,62.70
2018-08-06T18:12:45.041Z,63.30
2018-08-06T18:15:13.566Z,64.70
2018-08-06T18:17:42.129Z,65.60
2018-08-06T18:22:42.329Z,68.80
2018-08-06T18:25:12.640Z,69.20
2018-08-06T18:27:41.546Z,70.80
2018-08-06T18:30:12.481Z,72.80
2018-08-06T18:32:41.622Z,74.50
2018-08-06T18:37:39.989Z,77.10
2018-08-06T18:40:09.361Z,78.40
2018-08-06T18:42:37.901Z,79.50
2018-08-06T18:45:09.315Z,80.50
2018-08-06T18:50:08.101Z,81.50
2018-08-06T18:52:36.665Z,82.40
2018-08-06T18:55:06.594Z,82.90
2018-08-06T18:57:35.174Z,83.80
2018-08-06T19:00:03.837Z,84.30
2018-08-06T19:05:00.624Z,85.10
2018-08-06T19:07:29.236Z,85.80
2018-08-06T19:09:57.753Z,86.10
2018-08-06T19:12:31.745Z,86.80
2018-08-06T19:15:00.311Z,87.40
2018-08-06T19:17:29.377Z,87.80
2018-08-06T19:19:57.877Z,88.40
2018-08-06T19:22:26.437Z,88.80
2018-08-06T19:25:00.327Z,88.60
2018-08-06T19:29:57.058Z,90.00
2018-08-06T19:32:25.714Z,90.10
2018-08-06T19:34:54.244Z,90.50
2018-08-06T19:37:58.757Z,90.50
2018-08-06T19:40:27.357Z,90.80
2018-08-06T19:43:01.157Z,91.00
2018-08-06T19:45:29.687Z,91.10
2018-08-06T19:47:58.389Z,91.30
2018-08-06T19:50:32.162Z,91.60
2018-08-06T19:53:00.738Z,91.80
2018-08-06T19:58:02.797Z,92.00
2018-08-06T20:00:31.362Z,92.00
2018-08-06T20:02:59.918Z,92.10
2018-08-06T20:05:28.425Z,92.50
2018-08-06T20:07:57.021Z,92.50
2018-08-06T20:10:25.604Z,92.50
2018-08-06T20:12:54.116Z,92.70
2018-08-06T20:22:47.353Z,93.80
2018-08-06T20:25:18.705Z,93.60
2018-08-06T20:27:48.138Z,93.40
2018-08-06T20:30:18.636Z,93.50
2018-08-06T20:32:47.232Z,93.70
2018-08-06T20:35:17.888Z,93.80
2018-08-06T20:37:46.673Z,94.10
2018-08-06T20:40:15.276Z,94.00
2018-08-06T20:42:44.872Z,94.00
2018-08-06T20:45:15.067Z,93.90
2018-08-06T20:47:44.084Z,94.00
2018-08-06T20:50:17.352Z,94.40
2018-08-06T20:52:47.073Z,94.50
2018-08-06T20:55:15.675Z,94.60
2018-08-06T20:57:44.461Z,94.70
2018-08-06T21:00:15.518Z,95.10
2018-08-06T21:02:44.487Z,95.40
2018-08-06T21:05:12.968Z,95.30
2018-08-06T21:07:41.980Z,95.20
2018-08-06T21:10:12.396Z,95.50
2018-08-06T21:12:41.040Z,96.00
2018-08-06T21:15:10.779Z,96.50
2018-08-06T21:17:39.687Z,96.60
2018-08-06T21:20:10.090Z,96.50
2018-08-06T21:22:38.737Z,96.10
2018-08-06T21:25:08.809Z,96.00
2018-08-06T21:27:37.704Z,96.10
2018-08-06T21:30:09.177Z,96.00
2018-08-06T21:32:38.057Z,96.20
2018-08-06T21:35:07.325Z,96.20
2018-08-06T21:37:35.958Z,96.30
2018-08-06T21:40:04.756Z,96.50
2018-08-06T21:42:33.322Z,96.90
2018-08-06T21:45:01.938Z,96.60
2018-08-06T21:47:30.470Z,97.10
2018-08-06T21:49:59.072Z,97.30
2018-08-06T21:52:27.629Z,97.30
2018-08-06T21:54:56.234Z,97.50
2018-08-06T21:57:24.809Z,97.50
2018-08-06T21:59:53.385Z,97.60
2018-08-06T22:02:22.008Z,97.70
2018-08-06T22:04:50.613Z,97.90
2018-08-06T22:07:19.185Z,98.20
2018-08-06T22:09:47.763Z,98.00
2018-08-06T22:12:16.306Z,98.00
2018-08-06T22:14:45.015Z,98.10
2018-08-06T22:17:13.594Z,98.30
2018-08-06T22:19:42.162Z,98.60
2018-08-06T22:22:10.843Z,98.80
2018-08-06T22:24:39.448Z,98.70
2018-08-06T22:27:07.989Z,98.40
2018-08-06T22:32:04.906Z,98.90
2018-08-06T22:34:33.479Z,99.10
2018-08-06T22:37:02.052Z,99.00
2018-08-06T22:39:31.197Z,99.20
2018-08-06T22:41:59.758Z,99.40
2018-08-06T22:44:28.487Z,99.50
2018-08-06T22:49:25.244Z,99.90
2018-08-06T22:51:53.813Z,99.90
2018-08-06T22:54:22.389Z,99.90
2018-08-06T22:56:50.950Z,99.90
2018-08-06T22:59:19.528Z,99.90
2018-08-06T23:01:48.134Z,99.90
2018-08-06T23:04:17.555Z,99.90
2018-08-06T23:06:46.108Z,99.90
2018-08-06T23:09:14.865Z,99.90
2018-08-06T23:11:43.383Z,99.90
2018-08-06T23:14:11.944Z,99.90
2018-08-06T23:16:40.521Z,99.90
2018-08-06T23:19:09.152Z,99.90
2018-08-06T23:21:37.782Z,99.90
2018-08-06T23:24:06.425Z,99.90
2018-08-06T23:26:34.972Z,99.90
2018-08-06T23:29:03.560Z,99.90
2018-08-06T23:31:32.105Z,99.90
2018-08-06T23:34:00.732Z,99.90
2018-08-06T23:36:29.264Z,99.90
2018-08-06T23:41:26.084Z,99.90
2018-08-06T23:43:54.650Z,99.90
2018-08-06T23:46:23.316Z,99.90
2018-08-06T23:48:51.860Z,99.90
2018-08-06T23:51:20.504Z,99.90
2018-08-06T23:53:49.056Z,99.90
2018-08-06T23:56:17.659Z,99.90
2018-08-06T23:58:46.208Z,99.90
